SDA131 NZMF-NZNS
Flight info
| Callsign | SDA131 |
|---|---|
| Flight time | 2h 11m |
| Altitude | 14000 |
| Route | SAVLA Y569 LOVTA |
| Aircraft | C208/L-SDFGRY/C |
Departure
| Time | 2026-04-22 21:27 |
|---|---|
| Airport | Milford Sound Airport (NZMF) |
Arrival
| Time | 2026-04-22 23:39 |
|---|---|
| Airport | Nelson Airport (NZNS) |
| Time | Latitude | Longitude | Altitude | Speed | Heading |
|---|---|---|---|---|---|
| 2026-04-22 21:20 | -44.67246 | 167.92359 | 23 ft | 0 kts | 143° |
| 2026-04-22 21:25 | -44.67264 | 167.92366 | 24 ft | 9 kts | 187° |
| 2026-04-22 21:25 | -44.67371 | 167.92366 | 25 ft | 25 kts | 131° |
| 2026-04-22 21:25 | -44.67491 | 167.92614 | 22 ft | 28 kts | 126° |
| 2026-04-22 21:25 | -44.67533 | 167.92722 | 23 ft | 7 kts | 162° |
| 2026-04-22 21:26 | -44.67520 | 167.92661 | 24 ft | 14 kts | 303° |
| 2026-04-22 21:26 | -44.67337 | 167.92294 | 24 ft | 79 kts | 305° |
| 2026-04-22 21:26 | -44.66918 | 167.91592 | 137 ft | 107 kts | 323° |
| 2026-04-22 21:26 | -44.66231 | 167.91014 | 304 ft | 123 kts | 331° |
| 2026-04-22 21:27 | -44.65478 | 167.90365 | 375 ft | 132 kts | 327° |
| 2026-04-22 21:27 | -44.64699 | 167.89688 | 478 ft | 135 kts | 329° |
| 2026-04-22 21:27 | -44.63904 | 167.88945 | 561 ft | 135 kts | 323° |
| 2026-04-22 21:27 | -44.63162 | 167.88171 | 732 ft | 132 kts | 323° |
| 2026-04-22 21:28 | -44.62431 | 167.87405 | 902 ft | 130 kts | 322° |
| 2026-04-22 21:28 | -44.61791 | 167.86509 | 1072 ft | 130 kts | 311° |
| 2026-04-22 21:28 | -44.61276 | 167.85494 | 1248 ft | 129 kts | 300° |
| 2026-04-22 21:28 | -44.60832 | 167.84396 | 1417 ft | 129 kts | 300° |
| 2026-04-22 21:29 | -44.60384 | 167.83302 | 1586 ft | 129 kts | 300° |
| 2026-04-22 21:29 | -44.59937 | 167.82205 | 1763 ft | 131 kts | 300° |
| 2026-04-22 21:29 | -44.59400 | 167.81180 | 1936 ft | 131 kts | 316° |
| 2026-04-22 21:29 | -44.58706 | 167.80377 | 2163 ft | 127 kts | 332° |
| 2026-04-22 21:30 | -44.57916 | 167.79852 | 2413 ft | 125 kts | 334° |
| 2026-04-22 21:30 | -44.57138 | 167.79319 | 2658 ft | 125 kts | 335° |
| 2026-04-22 21:30 | -44.56358 | 167.78790 | 2905 ft | 124 kts | 334° |
| 2026-04-22 21:30 | -44.55575 | 167.78296 | 3149 ft | 123 kts | 343° |
| 2026-04-22 21:31 | -44.54744 | 167.78009 | 3397 ft | 123 kts | 346° |
| 2026-04-22 21:31 | -44.53918 | 167.77890 | 3628 ft | 122 kts | 18° |
| 2026-04-22 21:31 | -44.53164 | 167.78420 | 3883 ft | 121 kts | 28° |
| 2026-04-22 21:31 | -44.52411 | 167.78938 | 4131 ft | 121 kts | 27° |
| 2026-04-22 21:32 | -44.51652 | 167.79460 | 4379 ft | 122 kts | 27° |
| 2026-04-22 21:32 | -44.50891 | 167.79982 | 4631 ft | 122 kts | 27° |
| 2026-04-22 21:32 | -44.50211 | 167.80660 | 4877 ft | 121 kts | 47° |
| 2026-04-22 21:32 | -44.49612 | 167.81484 | 5127 ft | 121 kts | 45° |
| 2026-04-22 21:33 | -44.49004 | 167.82303 | 5376 ft | 121 kts | 45° |
| 2026-04-22 21:33 | -44.48398 | 167.83118 | 5623 ft | 121 kts | 45° |
| 2026-04-22 21:33 | -44.47796 | 167.83918 | 5869 ft | 121 kts | 45° |
| 2026-04-22 21:33 | -44.47189 | 167.84724 | 6114 ft | 121 kts | 45° |
| 2026-04-22 21:34 | -44.46577 | 167.85536 | 6360 ft | 121 kts | 45° |
| 2026-04-22 21:34 | -44.45966 | 167.86350 | 6613 ft | 122 kts | 46° |
| 2026-04-22 21:34 | -44.45353 | 167.87166 | 6864 ft | 122 kts | 45° |
| 2026-04-22 21:34 | -44.44943 | 167.87709 | 7027 ft | 122 kts | 45° |
| 2026-04-22 21:35 | -44.44325 | 167.88518 | 7276 ft | 122 kts | 45° |
| 2026-04-22 21:35 | -44.43705 | 167.89326 | 7522 ft | 122 kts | 45° |
| 2026-04-22 21:35 | -44.43085 | 167.90136 | 7770 ft | 122 kts | 45° |
| 2026-04-22 21:35 | -44.42465 | 167.90945 | 8019 ft | 122 kts | 45° |
| 2026-04-22 21:36 | -44.41845 | 167.91753 | 8263 ft | 120 kts | 45° |
| 2026-04-22 21:36 | -44.41235 | 167.92547 | 8512 ft | 119 kts | 45° |
| 2026-04-22 21:36 | -44.40625 | 167.93331 | 8761 ft | 119 kts | 45° |
| 2026-04-22 21:36 | -44.40004 | 167.94129 | 8924 ft | 125 kts | 45° |
| 2026-04-22 21:37 | -44.39131 | 167.95257 | 9134 ft | 131 kts | 45° |
| 2026-04-22 21:37 | -44.38677 | 167.95849 | 9243 ft | 132 kts | 45° |
| 2026-04-22 21:37 | -44.37995 | 167.96727 | 9401 ft | 135 kts | 45° |
| 2026-04-22 21:37 | -44.37306 | 167.97603 | 9555 ft | 136 kts | 45° |
| 2026-04-22 21:38 | -44.36599 | 167.98496 | 9709 ft | 138 kts | 45° |
| 2026-04-22 21:38 | -44.35882 | 167.99392 | 9862 ft | 138 kts | 45° |
| 2026-04-22 21:38 | -44.35161 | 168.00283 | 10018 ft | 139 kts | 45° |
| 2026-04-22 21:38 | -44.34432 | 168.01179 | 10165 ft | 140 kts | 45° |
| 2026-04-22 21:39 | -44.33694 | 168.02076 | 10319 ft | 141 kts | 45° |
| 2026-04-22 21:39 | -44.32949 | 168.02973 | 10467 ft | 142 kts | 45° |
| 2026-04-22 21:39 | -44.32200 | 168.03867 | 10617 ft | 142 kts | 45° |
| 2026-04-22 21:39 | -44.31446 | 168.04756 | 10766 ft | 142 kts | 45° |
| 2026-04-22 21:40 | -44.30687 | 168.05644 | 10916 ft | 142 kts | 45° |
| 2026-04-22 21:40 | -44.29923 | 168.06528 | 11070 ft | 143 kts | 45° |
| 2026-04-22 21:40 | -44.29154 | 168.07408 | 11218 ft | 143 kts | 45° |
| 2026-04-22 21:40 | -44.28381 | 168.08285 | 11357 ft | 143 kts | 45° |
| 2026-04-22 21:41 | -44.27602 | 168.09151 | 11512 ft | 143 kts | 45° |
| 2026-04-22 21:41 | -44.26933 | 168.10132 | 11657 ft | 136 kts | 72° |
| 2026-04-22 21:41 | -44.26549 | 168.11331 | 11808 ft | 136 kts | 73° |
| 2026-04-22 21:41 | -44.26114 | 168.12503 | 11958 ft | 136 kts | 70° |
| 2026-04-22 21:42 | -44.25648 | 168.13651 | 12108 ft | 137 kts | 69° |
| 2026-04-22 21:42 | -44.25171 | 168.14788 | 12251 ft | 135 kts | 69° |
| 2026-04-22 21:42 | -44.24700 | 168.15918 | 12402 ft | 135 kts | 69° |
| 2026-04-22 21:42 | -44.24223 | 168.17053 | 12557 ft | 137 kts | 69° |
| 2026-04-22 21:43 | -44.23735 | 168.18214 | 12710 ft | 139 kts | 69° |
| 2026-04-22 21:43 | -44.23249 | 168.19363 | 12860 ft | 139 kts | 69° |
| 2026-04-22 21:43 | -44.22758 | 168.20528 | 13012 ft | 139 kts | 68° |
| 2026-04-22 21:43 | -44.22267 | 168.21685 | 13157 ft | 138 kts | 68° |
| 2026-04-22 21:44 | -44.21783 | 168.22830 | 13306 ft | 136 kts | 68° |
| 2026-04-22 21:44 | -44.21304 | 168.23964 | 13448 ft | 136 kts | 69° |
| 2026-04-22 21:44 | -44.20825 | 168.25098 | 13602 ft | 136 kts | 69° |
| 2026-04-22 21:44 | -44.20344 | 168.26235 | 13751 ft | 136 kts | 68° |
| 2026-04-22 21:45 | -44.19864 | 168.27375 | 13899 ft | 136 kts | 68° |
| 2026-04-22 21:45 | -44.19381 | 168.28515 | 13998 ft | 139 kts | 68° |
| 2026-04-22 21:45 | -44.18881 | 168.29707 | 14009 ft | 146 kts | 69° |
| 2026-04-22 21:45 | -44.18355 | 168.30953 | 14012 ft | 152 kts | 68° |
| 2026-04-22 21:46 | -44.17809 | 168.32247 | 14013 ft | 157 kts | 68° |
| 2026-04-22 21:46 | -44.17249 | 168.33566 | 14010 ft | 158 kts | 68° |
| 2026-04-22 21:46 | -44.16687 | 168.34887 | 14009 ft | 159 kts | 68° |
| 2026-04-22 21:46 | -44.16126 | 168.36206 | 14010 ft | 160 kts | 68° |
| 2026-04-22 21:47 | -44.15560 | 168.37544 | 14005 ft | 160 kts | 67° |
| 2026-04-22 21:47 | -44.14991 | 168.38879 | 14010 ft | 161 kts | 67° |
| 2026-04-22 21:47 | -44.14422 | 168.40219 | 14008 ft | 160 kts | 67° |
| 2026-04-22 21:47 | -44.13854 | 168.41555 | 14010 ft | 160 kts | 68° |
| 2026-04-22 21:48 | -44.13283 | 168.42899 | 14007 ft | 161 kts | 68° |
| 2026-04-22 21:48 | -44.12713 | 168.44237 | 14011 ft | 160 kts | 67° |
| 2026-04-22 21:48 | -44.12144 | 168.45576 | 14010 ft | 161 kts | 67° |
| 2026-04-22 21:48 | -44.11571 | 168.46917 | 14007 ft | 160 kts | 68° |
| 2026-04-22 21:49 | -44.11002 | 168.48258 | 14010 ft | 161 kts | 67° |
| 2026-04-22 21:49 | -44.10435 | 168.49582 | 14005 ft | 161 kts | 68° |
| 2026-04-22 21:49 | -44.09867 | 168.50914 | 14009 ft | 160 kts | 68° |
| 2026-04-22 21:49 | -44.09301 | 168.52243 | 14003 ft | 159 kts | 68° |
| 2026-04-22 21:50 | -44.08736 | 168.53568 | 14004 ft | 159 kts | 68° |
| 2026-04-22 21:50 | -44.08171 | 168.54891 | 14000 ft | 159 kts | 67° |
| 2026-04-22 21:50 | -44.07609 | 168.56207 | 13999 ft | 158 kts | 67° |
| 2026-04-22 21:50 | -44.07047 | 168.57523 | 14009 ft | 159 kts | 67° |
| 2026-04-22 21:51 | -44.06478 | 168.58852 | 14008 ft | 160 kts | 67° |
| 2026-04-22 21:51 | -44.05904 | 168.60203 | 13999 ft | 164 kts | 67° |
| 2026-04-22 21:51 | -44.05325 | 168.61554 | 14000 ft | 162 kts | 67° |
| 2026-04-22 21:52 | -44.04171 | 168.64245 | 14000 ft | 161 kts | 67° |
| 2026-04-22 21:52 | -44.03598 | 168.65581 | 14001 ft | 161 kts | 67° |
| 2026-04-22 21:52 | -44.03023 | 168.66923 | 13994 ft | 162 kts | 67° |
| 2026-04-22 21:52 | -44.02449 | 168.68259 | 13998 ft | 160 kts | 67° |
| 2026-04-22 21:53 | -44.01888 | 168.69562 | 13998 ft | 159 kts | 67° |
| 2026-04-22 21:53 | -44.01322 | 168.70885 | 13992 ft | 160 kts | 67° |
| 2026-04-22 21:53 | -44.00752 | 168.72212 | 13991 ft | 159 kts | 67° |
| 2026-04-22 21:53 | -44.00185 | 168.73530 | 13994 ft | 158 kts | 67° |
| 2026-04-22 21:54 | -43.99620 | 168.74842 | 13993 ft | 158 kts | 68° |
| 2026-04-22 21:54 | -43.99056 | 168.76149 | 13993 ft | 157 kts | 68° |
| 2026-04-22 21:54 | -43.98497 | 168.77453 | 13992 ft | 157 kts | 68° |
| 2026-04-22 21:54 | -43.97939 | 168.78749 | 13999 ft | 157 kts | 68° |
| 2026-04-22 21:55 | -43.97378 | 168.80055 | 13998 ft | 158 kts | 68° |
| 2026-04-22 21:55 | -43.96826 | 168.81336 | 13999 ft | 158 kts | 68° |
| 2026-04-22 21:55 | -43.96287 | 168.82587 | 13996 ft | 159 kts | 68° |
| 2026-04-22 21:55 | -43.95715 | 168.83914 | 14000 ft | 159 kts | 68° |
| 2026-04-22 21:56 | -43.95147 | 168.85232 | 13997 ft | 159 kts | 68° |
| 2026-04-22 21:56 | -43.94586 | 168.86533 | 14001 ft | 159 kts | 68° |
| 2026-04-22 21:56 | -43.94016 | 168.87853 | 14003 ft | 160 kts | 68° |
| 2026-04-22 21:56 | -43.93443 | 168.89179 | 14000 ft | 160 kts | 68° |
| 2026-04-22 21:57 | -43.92871 | 168.90501 | 14002 ft | 160 kts | 68° |
| 2026-04-22 21:57 | -43.92298 | 168.91826 | 14000 ft | 160 kts | 68° |
| 2026-04-22 21:57 | -43.91726 | 168.93145 | 14001 ft | 159 kts | 67° |
| 2026-04-22 21:57 | -43.91157 | 168.94457 | 13996 ft | 159 kts | 68° |
| 2026-04-22 21:58 | -43.90590 | 168.95765 | 13998 ft | 158 kts | 68° |
| 2026-04-22 21:58 | -43.90032 | 168.97056 | 13993 ft | 158 kts | 68° |
| 2026-04-22 21:58 | -43.89465 | 168.98362 | 13995 ft | 158 kts | 67° |
| 2026-04-22 21:58 | -43.88897 | 168.99672 | 13993 ft | 159 kts | 68° |
| 2026-04-22 21:59 | -43.88320 | 169.01011 | 13999 ft | 166 kts | 67° |
| 2026-04-22 21:59 | -43.87734 | 169.02368 | 14001 ft | 162 kts | 66° |
| 2026-04-22 21:59 | -43.87151 | 169.03699 | 14000 ft | 160 kts | 67° |
| 2026-04-22 21:59 | -43.86575 | 169.05019 | 13997 ft | 160 kts | 67° |
| 2026-04-22 22:00 | -43.86002 | 169.06337 | 13994 ft | 159 kts | 67° |
| 2026-04-22 22:00 | -43.85430 | 169.07650 | 13998 ft | 159 kts | 67° |
| 2026-04-22 22:00 | -43.84861 | 169.08958 | 13992 ft | 158 kts | 67° |
| 2026-04-22 22:00 | -43.84293 | 169.10267 | 13993 ft | 159 kts | 67° |
| 2026-04-22 22:01 | -43.83725 | 169.11573 | 13991 ft | 158 kts | 67° |
| 2026-04-22 22:01 | -43.83156 | 169.12875 | 13996 ft | 158 kts | 67° |
| 2026-04-22 22:01 | -43.82598 | 169.14158 | 13997 ft | 158 kts | 67° |
| 2026-04-22 22:01 | -43.82032 | 169.15456 | 13994 ft | 157 kts | 67° |
| 2026-04-22 22:02 | -43.81466 | 169.16750 | 13991 ft | 157 kts | 67° |
| 2026-04-22 22:02 | -43.80903 | 169.18045 | 13991 ft | 157 kts | 67° |
| 2026-04-22 22:02 | -43.80339 | 169.19334 | 13998 ft | 156 kts | 67° |
| 2026-04-22 22:02 | -43.79775 | 169.20624 | 13997 ft | 156 kts | 67° |
| 2026-04-22 22:03 | -43.79214 | 169.21905 | 13992 ft | 156 kts | 67° |
| 2026-04-22 22:03 | -43.78654 | 169.23195 | 14000 ft | 158 kts | 67° |
| 2026-04-22 22:03 | -43.78081 | 169.24505 | 13998 ft | 160 kts | 66° |
| 2026-04-22 22:03 | -43.77505 | 169.25816 | 13998 ft | 159 kts | 68° |
| 2026-04-22 22:04 | -43.76936 | 169.27117 | 13998 ft | 158 kts | 67° |
| 2026-04-22 22:04 | -43.76375 | 169.28396 | 13995 ft | 158 kts | 67° |
| 2026-04-22 22:04 | -43.75803 | 169.29705 | 14000 ft | 156 kts | 67° |
| 2026-04-22 22:04 | -43.75236 | 169.30994 | 13999 ft | 157 kts | 67° |
| 2026-04-22 22:05 | -43.74670 | 169.32286 | 13992 ft | 157 kts | 67° |
| 2026-04-22 22:05 | -43.74106 | 169.33567 | 13998 ft | 154 kts | 67° |
| 2026-04-22 22:05 | -43.73556 | 169.34824 | 14000 ft | 156 kts | 68° |
| 2026-04-22 22:05 | -43.72991 | 169.36113 | 14000 ft | 157 kts | 67° |
| 2026-04-22 22:06 | -43.72425 | 169.37405 | 14000 ft | 158 kts | 66° |
| 2026-04-22 22:06 | -43.71854 | 169.38698 | 14003 ft | 157 kts | 67° |
| 2026-04-22 22:06 | -43.71287 | 169.39990 | 14002 ft | 158 kts | 67° |
| 2026-04-22 22:06 | -43.70715 | 169.41289 | 14001 ft | 158 kts | 67° |
| 2026-04-22 22:07 | -43.70143 | 169.42589 | 14005 ft | 158 kts | 67° |
| 2026-04-22 22:07 | -43.69569 | 169.43890 | 14004 ft | 158 kts | 66° |
| 2026-04-22 22:07 | -43.68996 | 169.45189 | 14000 ft | 158 kts | 66° |
| 2026-04-22 22:07 | -43.68426 | 169.46483 | 13999 ft | 158 kts | 66° |
| 2026-04-22 22:08 | -43.67855 | 169.47779 | 14001 ft | 158 kts | 67° |
| 2026-04-22 22:08 | -43.67292 | 169.49060 | 14002 ft | 158 kts | 67° |
| 2026-04-22 22:08 | -43.66719 | 169.50357 | 14003 ft | 158 kts | 66° |
| 2026-04-22 22:08 | -43.66143 | 169.51652 | 14002 ft | 158 kts | 67° |
| 2026-04-22 22:09 | -43.65575 | 169.52945 | 13998 ft | 157 kts | 67° |
| 2026-04-22 22:09 | -43.65005 | 169.54235 | 13998 ft | 157 kts | 66° |
| 2026-04-22 22:09 | -43.64435 | 169.55521 | 13995 ft | 157 kts | 67° |
| 2026-04-22 22:09 | -43.63868 | 169.56803 | 14002 ft | 156 kts | 67° |
| 2026-04-22 22:10 | -43.63302 | 169.58086 | 14001 ft | 157 kts | 67° |
| 2026-04-22 22:10 | -43.62731 | 169.59376 | 14001 ft | 157 kts | 66° |
| 2026-04-22 22:10 | -43.62160 | 169.60665 | 13998 ft | 157 kts | 66° |
| 2026-04-22 22:10 | -43.61587 | 169.61965 | 14003 ft | 160 kts | 67° |
| 2026-04-22 22:11 | -43.60998 | 169.63299 | 14009 ft | 162 kts | 66° |
| 2026-04-22 22:11 | -43.60411 | 169.64611 | 14012 ft | 160 kts | 66° |
| 2026-04-22 22:11 | -43.59838 | 169.65898 | 14003 ft | 158 kts | 66° |
| 2026-04-22 22:11 | -43.59265 | 169.67192 | 14001 ft | 158 kts | 66° |
| 2026-04-22 22:12 | -43.58693 | 169.68481 | 13999 ft | 157 kts | 66° |
| 2026-04-22 22:12 | -43.58120 | 169.69767 | 14003 ft | 158 kts | 66° |
| 2026-04-22 22:12 | -43.57547 | 169.71061 | 14004 ft | 158 kts | 66° |
| 2026-04-22 22:12 | -43.56973 | 169.72350 | 14000 ft | 157 kts | 66° |
| 2026-04-22 22:13 | -43.56401 | 169.73636 | 13999 ft | 158 kts | 66° |
| 2026-04-22 22:13 | -43.55826 | 169.74930 | 13997 ft | 158 kts | 66° |
| 2026-04-22 22:13 | -43.55251 | 169.76216 | 13996 ft | 157 kts | 66° |
| 2026-04-22 22:13 | -43.54678 | 169.77501 | 13999 ft | 157 kts | 66° |
| 2026-04-22 22:14 | -43.54106 | 169.78786 | 13999 ft | 157 kts | 66° |
| 2026-04-22 22:14 | -43.53535 | 169.80068 | 13995 ft | 157 kts | 66° |
| 2026-04-22 22:14 | -43.52962 | 169.81355 | 13996 ft | 158 kts | 66° |
| 2026-04-22 22:14 | -43.52386 | 169.82643 | 13994 ft | 158 kts | 66° |
| 2026-04-22 22:15 | -43.51812 | 169.83929 | 13997 ft | 157 kts | 66° |
| 2026-04-22 22:15 | -43.51239 | 169.85213 | 13997 ft | 157 kts | 66° |
| 2026-04-22 22:15 | -43.50665 | 169.86497 | 13996 ft | 158 kts | 66° |
| 2026-04-22 22:15 | -43.50087 | 169.87786 | 14001 ft | 157 kts | 66° |
| 2026-04-22 22:16 | -43.49522 | 169.89051 | 13996 ft | 157 kts | 66° |
| 2026-04-22 22:16 | -43.48952 | 169.90325 | 13999 ft | 156 kts | 66° |
| 2026-04-22 22:16 | -43.48336 | 169.91557 | 13988 ft | 161 kts | 53° |
| 2026-04-22 22:16 | -43.47463 | 169.92561 | 13987 ft | 164 kts | 47° |
| 2026-04-22 22:17 | -43.46590 | 169.93570 | 13988 ft | 164 kts | 48° |
| 2026-04-22 22:17 | -43.45723 | 169.94586 | 13989 ft | 164 kts | 48° |
| 2026-04-22 22:17 | -43.44854 | 169.95603 | 13991 ft | 164 kts | 48° |
| 2026-04-22 22:17 | -43.43983 | 169.96621 | 13994 ft | 165 kts | 48° |
| 2026-04-22 22:18 | -43.43106 | 169.97644 | 13998 ft | 165 kts | 48° |
| 2026-04-22 22:18 | -43.42233 | 169.98665 | 13992 ft | 164 kts | 48° |
| 2026-04-22 22:18 | -43.41361 | 169.99681 | 13994 ft | 164 kts | 48° |
| 2026-04-22 22:18 | -43.40490 | 170.00698 | 13991 ft | 164 kts | 48° |
| 2026-04-22 22:19 | -43.39621 | 170.01711 | 13995 ft | 163 kts | 48° |
| 2026-04-22 22:19 | -43.38765 | 170.02708 | 13993 ft | 163 kts | 48° |
| 2026-04-22 22:19 | -43.37900 | 170.03716 | 13987 ft | 163 kts | 48° |
| 2026-04-22 22:19 | -43.37034 | 170.04725 | 13990 ft | 163 kts | 49° |
| 2026-04-22 22:20 | -43.36168 | 170.05736 | 13998 ft | 164 kts | 49° |
| 2026-04-22 22:20 | -43.35296 | 170.06752 | 13990 ft | 164 kts | 49° |
| 2026-04-22 22:20 | -43.34423 | 170.07768 | 13996 ft | 164 kts | 49° |
| 2026-04-22 22:20 | -43.33550 | 170.08782 | 13991 ft | 164 kts | 49° |
| 2026-04-22 22:21 | -43.32679 | 170.09796 | 13996 ft | 164 kts | 49° |
| 2026-04-22 22:21 | -43.31805 | 170.10810 | 14000 ft | 164 kts | 49° |
| 2026-04-22 22:21 | -43.30932 | 170.11828 | 13995 ft | 165 kts | 49° |
| 2026-04-22 22:21 | -43.30057 | 170.12842 | 13996 ft | 164 kts | 49° |
| 2026-04-22 22:22 | -43.29194 | 170.13844 | 13997 ft | 164 kts | 48° |
| 2026-04-22 22:22 | -43.28319 | 170.14858 | 13996 ft | 165 kts | 49° |
| 2026-04-22 22:22 | -43.27444 | 170.15872 | 13992 ft | 165 kts | 49° |
| 2026-04-22 22:22 | -43.26569 | 170.16887 | 13999 ft | 165 kts | 49° |
| 2026-04-22 22:23 | -43.25693 | 170.17904 | 13996 ft | 165 kts | 48° |
| 2026-04-22 22:23 | -43.25111 | 170.18578 | 13995 ft | 164 kts | 48° |
| 2026-04-22 22:23 | -43.24238 | 170.19589 | 13995 ft | 164 kts | 48° |
| 2026-04-22 22:23 | -43.23363 | 170.20602 | 13994 ft | 165 kts | 48° |
| 2026-04-22 22:24 | -43.22490 | 170.21611 | 13992 ft | 165 kts | 49° |
| 2026-04-22 22:24 | -43.21613 | 170.22626 | 13991 ft | 165 kts | 49° |
| 2026-04-22 22:24 | -43.20738 | 170.23639 | 13991 ft | 164 kts | 49° |
| 2026-04-22 22:24 | -43.19864 | 170.24649 | 13994 ft | 164 kts | 49° |
| 2026-04-22 22:25 | -43.18990 | 170.25659 | 13987 ft | 164 kts | 49° |
| 2026-04-22 22:25 | -43.18117 | 170.26666 | 13990 ft | 164 kts | 49° |
| 2026-04-22 22:25 | -43.16958 | 170.28004 | 13988 ft | 164 kts | 49° |
| 2026-04-22 22:25 | -43.16382 | 170.28669 | 13988 ft | 164 kts | 49° |
| 2026-04-22 22:26 | -43.15509 | 170.29676 | 13987 ft | 164 kts | 49° |
| 2026-04-22 22:26 | -43.14637 | 170.30682 | 13987 ft | 164 kts | 49° |
| 2026-04-22 22:26 | -43.13766 | 170.31686 | 13987 ft | 164 kts | 49° |
| 2026-04-22 22:26 | -43.12894 | 170.32690 | 13987 ft | 164 kts | 49° |
| 2026-04-22 22:27 | -43.12018 | 170.33699 | 13985 ft | 164 kts | 49° |
| 2026-04-22 22:27 | -43.11147 | 170.34700 | 13985 ft | 162 kts | 49° |
| 2026-04-22 22:27 | -43.10286 | 170.35688 | 13985 ft | 161 kts | 49° |
| 2026-04-22 22:27 | -43.09431 | 170.36669 | 13983 ft | 160 kts | 49° |
| 2026-04-22 22:28 | -43.08577 | 170.37655 | 13983 ft | 160 kts | 49° |
| 2026-04-22 22:28 | -43.07725 | 170.38634 | 13985 ft | 160 kts | 49° |
| 2026-04-22 22:28 | -43.06883 | 170.39602 | 13983 ft | 160 kts | 49° |
| 2026-04-22 22:28 | -43.06019 | 170.40594 | 13985 ft | 160 kts | 49° |
| 2026-04-22 22:29 | -43.05178 | 170.41560 | 13986 ft | 160 kts | 49° |
| 2026-04-22 22:29 | -43.04328 | 170.42537 | 13984 ft | 160 kts | 49° |
| 2026-04-22 22:29 | -43.03475 | 170.43517 | 13987 ft | 161 kts | 49° |
| 2026-04-22 22:29 | -43.02621 | 170.44500 | 13985 ft | 160 kts | 49° |
| 2026-04-22 22:30 | -43.01763 | 170.45481 | 13986 ft | 160 kts | 49° |
| 2026-04-22 22:30 | -43.00910 | 170.46459 | 13989 ft | 161 kts | 49° |
| 2026-04-22 22:30 | -43.00049 | 170.47446 | 13989 ft | 161 kts | 49° |
| 2026-04-22 22:30 | -42.99191 | 170.48427 | 13985 ft | 160 kts | 49° |
| 2026-04-22 22:31 | -42.98338 | 170.49402 | 13985 ft | 160 kts | 50° |
| 2026-04-22 22:31 | -42.97491 | 170.50371 | 13984 ft | 160 kts | 50° |
| 2026-04-22 22:31 | -42.96636 | 170.51353 | 13985 ft | 160 kts | 50° |
| 2026-04-22 22:31 | -42.95781 | 170.52331 | 13985 ft | 161 kts | 49° |
| 2026-04-22 22:32 | -42.94923 | 170.53311 | 13987 ft | 161 kts | 50° |
| 2026-04-22 22:32 | -42.94064 | 170.54294 | 13986 ft | 161 kts | 49° |
| 2026-04-22 22:32 | -42.93203 | 170.55277 | 13985 ft | 161 kts | 49° |
| 2026-04-22 22:32 | -42.92348 | 170.56251 | 13987 ft | 160 kts | 49° |
| 2026-04-22 22:33 | -42.91494 | 170.57228 | 13986 ft | 161 kts | 49° |
| 2026-04-22 22:33 | -42.90638 | 170.58206 | 13986 ft | 161 kts | 49° |
| 2026-04-22 22:33 | -42.89780 | 170.59184 | 13986 ft | 161 kts | 49° |
| 2026-04-22 22:33 | -42.88935 | 170.60148 | 13986 ft | 161 kts | 49° |
| 2026-04-22 22:34 | -42.88077 | 170.61125 | 13985 ft | 161 kts | 49° |
| 2026-04-22 22:34 | -42.87220 | 170.62102 | 13985 ft | 161 kts | 49° |
| 2026-04-22 22:34 | -42.86361 | 170.63080 | 13984 ft | 161 kts | 49° |
| 2026-04-22 22:34 | -42.85503 | 170.64056 | 13983 ft | 161 kts | 50° |
| 2026-04-22 22:35 | -42.84645 | 170.65034 | 13984 ft | 161 kts | 50° |
| 2026-04-22 22:35 | -42.83787 | 170.66009 | 13983 ft | 161 kts | 50° |
| 2026-04-22 22:35 | -42.82929 | 170.66985 | 13984 ft | 161 kts | 50° |
| 2026-04-22 22:35 | -42.82070 | 170.67963 | 13982 ft | 160 kts | 50° |
| 2026-04-22 22:36 | -42.81212 | 170.68936 | 13982 ft | 160 kts | 50° |
| 2026-04-22 22:36 | -42.80358 | 170.69908 | 13983 ft | 160 kts | 50° |
| 2026-04-22 22:36 | -42.79502 | 170.70879 | 13985 ft | 160 kts | 50° |
| 2026-04-22 22:36 | -42.78655 | 170.71841 | 13984 ft | 160 kts | 50° |
| 2026-04-22 22:37 | -42.77801 | 170.72810 | 13984 ft | 160 kts | 50° |
| 2026-04-22 22:37 | -42.76944 | 170.73783 | 13986 ft | 161 kts | 50° |
| 2026-04-22 22:37 | -42.76086 | 170.74754 | 13985 ft | 160 kts | 50° |
| 2026-04-22 22:37 | -42.75227 | 170.75728 | 13986 ft | 160 kts | 50° |
| 2026-04-22 22:38 | -42.74372 | 170.76696 | 13983 ft | 160 kts | 50° |
| 2026-04-22 22:38 | -42.73515 | 170.77666 | 13985 ft | 160 kts | 50° |
| 2026-04-22 22:38 | -42.72661 | 170.78634 | 13985 ft | 160 kts | 50° |
| 2026-04-22 22:38 | -42.71803 | 170.79605 | 13983 ft | 160 kts | 50° |
| 2026-04-22 22:39 | -42.70950 | 170.80571 | 13984 ft | 160 kts | 50° |
| 2026-04-22 22:39 | -42.70095 | 170.81536 | 13985 ft | 160 kts | 50° |
| 2026-04-22 22:39 | -42.69240 | 170.82503 | 13986 ft | 160 kts | 50° |
| 2026-04-22 22:39 | -42.68386 | 170.83467 | 13986 ft | 160 kts | 50° |
| 2026-04-22 22:40 | -42.67531 | 170.84433 | 13984 ft | 160 kts | 50° |
| 2026-04-22 22:40 | -42.66679 | 170.85397 | 13985 ft | 160 kts | 50° |
| 2026-04-22 22:40 | -42.65825 | 170.86360 | 13985 ft | 159 kts | 50° |
| 2026-04-22 22:40 | -42.64972 | 170.87324 | 13982 ft | 160 kts | 50° |
| 2026-04-22 22:41 | -42.64119 | 170.88286 | 13983 ft | 160 kts | 50° |
| 2026-04-22 22:41 | -42.63263 | 170.89251 | 13985 ft | 160 kts | 50° |
| 2026-04-22 22:41 | -42.62407 | 170.90216 | 13984 ft | 160 kts | 50° |
| 2026-04-22 22:41 | -42.61564 | 170.91165 | 13985 ft | 160 kts | 50° |
| 2026-04-22 22:42 | -42.60710 | 170.92128 | 13984 ft | 159 kts | 50° |
| 2026-04-22 22:42 | -42.59855 | 170.93089 | 13984 ft | 159 kts | 50° |
| 2026-04-22 22:42 | -42.59001 | 170.94051 | 13984 ft | 159 kts | 50° |
| 2026-04-22 22:42 | -42.58148 | 170.95011 | 13983 ft | 159 kts | 50° |
| 2026-04-22 22:43 | -42.57293 | 170.95973 | 13983 ft | 159 kts | 50° |
| 2026-04-22 22:43 | -42.56440 | 170.96933 | 13984 ft | 159 kts | 50° |
| 2026-04-22 22:43 | -42.55586 | 170.97891 | 13986 ft | 159 kts | 50° |
| 2026-04-22 22:43 | -42.54732 | 170.98851 | 13984 ft | 159 kts | 50° |
| 2026-04-22 22:44 | -42.53880 | 170.99808 | 13984 ft | 159 kts | 50° |
| 2026-04-22 22:44 | -42.53027 | 171.00764 | 13985 ft | 159 kts | 50° |
| 2026-04-22 22:44 | -42.52174 | 171.01721 | 13984 ft | 159 kts | 50° |
| 2026-04-22 22:44 | -42.51321 | 171.02679 | 13984 ft | 159 kts | 50° |
| 2026-04-22 22:45 | -42.50470 | 171.03633 | 13983 ft | 159 kts | 50° |
| 2026-04-22 22:45 | -42.49616 | 171.04589 | 13986 ft | 159 kts | 50° |
| 2026-04-22 22:45 | -42.48765 | 171.05544 | 13985 ft | 159 kts | 50° |
| 2026-04-22 22:45 | -42.47926 | 171.06484 | 13985 ft | 159 kts | 50° |
| 2026-04-22 22:46 | -42.47074 | 171.07439 | 13984 ft | 159 kts | 50° |
| 2026-04-22 22:46 | -42.46222 | 171.08392 | 13986 ft | 158 kts | 50° |
| 2026-04-22 22:46 | -42.45370 | 171.09346 | 13986 ft | 159 kts | 50° |
| 2026-04-22 22:46 | -42.44520 | 171.10297 | 13985 ft | 159 kts | 50° |
| 2026-04-22 22:47 | -42.43670 | 171.11247 | 13984 ft | 158 kts | 50° |
| 2026-04-22 22:47 | -42.42818 | 171.12198 | 13985 ft | 158 kts | 50° |
| 2026-04-22 22:47 | -42.41969 | 171.13146 | 13984 ft | 158 kts | 50° |
| 2026-04-22 22:47 | -42.41122 | 171.14093 | 13985 ft | 158 kts | 50° |
| 2026-04-22 22:48 | -42.40274 | 171.15040 | 13984 ft | 158 kts | 50° |
| 2026-04-22 22:48 | -42.39427 | 171.15986 | 13983 ft | 158 kts | 50° |
| 2026-04-22 22:48 | -42.38575 | 171.16931 | 13984 ft | 157 kts | 50° |
| 2026-04-22 22:48 | -42.37744 | 171.17859 | 13984 ft | 157 kts | 51° |
| 2026-04-22 22:49 | -42.36903 | 171.18798 | 13983 ft | 156 kts | 50° |
| 2026-04-22 22:49 | -42.36065 | 171.19731 | 13986 ft | 156 kts | 50° |
| 2026-04-22 22:49 | -42.35228 | 171.20664 | 13984 ft | 156 kts | 50° |
| 2026-04-22 22:49 | -42.34391 | 171.21596 | 13984 ft | 156 kts | 51° |
| 2026-04-22 22:50 | -42.33555 | 171.22528 | 13984 ft | 156 kts | 51° |
| 2026-04-22 22:50 | -42.32714 | 171.23466 | 13987 ft | 157 kts | 51° |
| 2026-04-22 22:50 | -42.31872 | 171.24403 | 13988 ft | 157 kts | 51° |
| 2026-04-22 22:50 | -42.31027 | 171.25343 | 13989 ft | 157 kts | 51° |
| 2026-04-22 22:51 | -42.30182 | 171.26281 | 13986 ft | 156 kts | 50° |
| 2026-04-22 22:51 | -42.29343 | 171.27211 | 13986 ft | 156 kts | 51° |
| 2026-04-22 22:51 | -42.28509 | 171.28139 | 13985 ft | 156 kts | 51° |
| 2026-04-22 22:51 | -42.27667 | 171.29076 | 13983 ft | 156 kts | 51° |
| 2026-04-22 22:52 | -42.26838 | 171.29997 | 13987 ft | 157 kts | 50° |
| 2026-04-22 22:52 | -42.25993 | 171.30933 | 13987 ft | 157 kts | 50° |
| 2026-04-22 22:52 | -42.25150 | 171.31870 | 13988 ft | 157 kts | 51° |
| 2026-04-22 22:52 | -42.24305 | 171.32805 | 13986 ft | 156 kts | 51° |
| 2026-04-22 22:53 | -42.23470 | 171.33727 | 13992 ft | 155 kts | 51° |
| 2026-04-22 22:53 | -42.22631 | 171.34663 | 13989 ft | 158 kts | 51° |
| 2026-04-22 22:53 | -42.21783 | 171.35605 | 13994 ft | 158 kts | 51° |
| 2026-04-22 22:53 | -42.20933 | 171.36544 | 13993 ft | 158 kts | 51° |
| 2026-04-22 22:54 | -42.20089 | 171.37470 | 13989 ft | 154 kts | 51° |
| 2026-04-22 22:54 | -42.19266 | 171.38383 | 13995 ft | 150 kts | 51° |
| 2026-04-22 22:54 | -42.18456 | 171.39282 | 13993 ft | 151 kts | 51° |
| 2026-04-22 22:54 | -42.17638 | 171.40179 | 13988 ft | 152 kts | 50° |
| 2026-04-22 22:55 | -42.16833 | 171.41064 | 13987 ft | 151 kts | 51° |
| 2026-04-22 22:55 | -42.16021 | 171.41976 | 13997 ft | 153 kts | 51° |
| 2026-04-22 22:55 | -42.14376 | 171.43791 | 13985 ft | 153 kts | 51° |
| 2026-04-22 22:56 | -42.13556 | 171.44693 | 13986 ft | 152 kts | 51° |
| 2026-04-22 22:56 | -42.12740 | 171.45597 | 13986 ft | 152 kts | 51° |
| 2026-04-22 22:56 | -42.11920 | 171.46497 | 13993 ft | 153 kts | 51° |
| 2026-04-22 22:56 | -42.11088 | 171.47415 | 13989 ft | 154 kts | 51° |
| 2026-04-22 22:57 | -42.10265 | 171.48319 | 13984 ft | 150 kts | 51° |
| 2026-04-22 22:57 | -42.09470 | 171.49197 | 13979 ft | 146 kts | 52° |
| 2026-04-22 22:57 | -42.08688 | 171.50060 | 13996 ft | 147 kts | 52° |
| 2026-04-22 22:57 | -42.07897 | 171.50933 | 13994 ft | 150 kts | 52° |
| 2026-04-22 22:58 | -42.07088 | 171.51822 | 13984 ft | 149 kts | 52° |
| 2026-04-22 22:58 | -42.06286 | 171.52703 | 13986 ft | 149 kts | 51° |
| 2026-04-22 22:58 | -42.05479 | 171.53594 | 13998 ft | 151 kts | 51° |
| 2026-04-22 22:58 | -42.04661 | 171.54495 | 14002 ft | 153 kts | 51° |
| 2026-04-22 22:59 | -42.03838 | 171.55401 | 13999 ft | 153 kts | 51° |
| 2026-04-22 22:59 | -42.03009 | 171.56310 | 14001 ft | 154 kts | 51° |
| 2026-04-22 22:59 | -42.02178 | 171.57224 | 13997 ft | 154 kts | 51° |
| 2026-04-22 22:59 | -42.01353 | 171.58126 | 14003 ft | 153 kts | 51° |
| 2026-04-22 23:00 | -42.00525 | 171.59038 | 14007 ft | 155 kts | 51° |
| 2026-04-22 23:00 | -41.99676 | 171.59976 | 13998 ft | 159 kts | 51° |
| 2026-04-22 23:00 | -41.98842 | 171.60907 | 13995 ft | 154 kts | 57° |
| 2026-04-22 23:00 | -41.98300 | 171.62055 | 13999 ft | 143 kts | 74° |
| 2026-04-22 23:01 | -41.97814 | 171.63239 | 13996 ft | 145 kts | 72° |
| 2026-04-22 23:01 | -41.97344 | 171.64424 | 13999 ft | 143 kts | 75° |
| 2026-04-22 23:01 | -41.96902 | 171.65633 | 13998 ft | 145 kts | 74° |
| 2026-04-22 23:01 | -41.96440 | 171.66828 | 13997 ft | 143 kts | 73° |
| 2026-04-22 23:02 | -41.95994 | 171.67969 | 13998 ft | 139 kts | 73° |
| 2026-04-22 23:02 | -41.95540 | 171.69133 | 13997 ft | 141 kts | 74° |
| 2026-04-22 23:02 | -41.95083 | 171.70293 | 14000 ft | 141 kts | 73° |
| 2026-04-22 23:02 | -41.94623 | 171.71469 | 13991 ft | 142 kts | 73° |
| 2026-04-22 23:03 | -41.94158 | 171.72645 | 13999 ft | 143 kts | 73° |
| 2026-04-22 23:03 | -41.93690 | 171.73837 | 14006 ft | 145 kts | 73° |
| 2026-04-22 23:03 | -41.93213 | 171.75044 | 14004 ft | 145 kts | 73° |
| 2026-04-22 23:03 | -41.92738 | 171.76234 | 14005 ft | 145 kts | 73° |
| 2026-04-22 23:04 | -41.92269 | 171.77436 | 13998 ft | 145 kts | 73° |
| 2026-04-22 23:04 | -41.91800 | 171.78628 | 13999 ft | 144 kts | 73° |
| 2026-04-22 23:04 | -41.91342 | 171.79780 | 13986 ft | 139 kts | 73° |
| 2026-04-22 23:04 | -41.90887 | 171.80930 | 13989 ft | 138 kts | 74° |
| 2026-04-22 23:05 | -41.90435 | 171.82081 | 13986 ft | 140 kts | 73° |
| 2026-04-22 23:05 | -41.89981 | 171.83228 | 13983 ft | 140 kts | 73° |
| 2026-04-22 23:05 | -41.89523 | 171.84375 | 13989 ft | 139 kts | 74° |
| 2026-04-22 23:05 | -41.89073 | 171.85518 | 13993 ft | 139 kts | 73° |
| 2026-04-22 23:06 | -41.88618 | 171.86672 | 13996 ft | 141 kts | 73° |
| 2026-04-22 23:06 | -41.88156 | 171.87846 | 13994 ft | 142 kts | 73° |
| 2026-04-22 23:06 | -41.87688 | 171.89019 | 13995 ft | 142 kts | 73° |
| 2026-04-22 23:06 | -41.87225 | 171.90190 | 13995 ft | 142 kts | 73° |
| 2026-04-22 23:07 | -41.86760 | 171.91358 | 13996 ft | 141 kts | 73° |
| 2026-04-22 23:07 | -41.86296 | 171.92519 | 13992 ft | 141 kts | 73° |
| 2026-04-22 23:07 | -41.85839 | 171.93684 | 13998 ft | 142 kts | 73° |
| 2026-04-22 23:07 | -41.85375 | 171.94859 | 13995 ft | 142 kts | 73° |
| 2026-04-22 23:08 | -41.84909 | 171.96030 | 13992 ft | 142 kts | 73° |
| 2026-04-22 23:08 | -41.84443 | 171.97191 | 13999 ft | 141 kts | 73° |
| 2026-04-22 23:08 | -41.83991 | 171.98341 | 13991 ft | 142 kts | 73° |
| 2026-04-22 23:08 | -41.83528 | 171.99510 | 13990 ft | 142 kts | 73° |
| 2026-04-22 23:09 | -41.83063 | 172.00674 | 13986 ft | 141 kts | 74° |
| 2026-04-22 23:09 | -41.82601 | 172.01839 | 13991 ft | 142 kts | 73° |
| 2026-04-22 23:09 | -41.82132 | 172.03017 | 13986 ft | 143 kts | 73° |
| 2026-04-22 23:09 | -41.81663 | 172.04191 | 13987 ft | 143 kts | 73° |
| 2026-04-22 23:10 | -41.81197 | 172.05358 | 13988 ft | 141 kts | 73° |
| 2026-04-22 23:10 | -41.80733 | 172.06523 | 13987 ft | 142 kts | 73° |
| 2026-04-22 23:10 | -41.80267 | 172.07691 | 13987 ft | 142 kts | 73° |
| 2026-04-22 23:10 | -41.79809 | 172.08842 | 13987 ft | 142 kts | 73° |
| 2026-04-22 23:11 | -41.79343 | 172.10011 | 13994 ft | 142 kts | 73° |
| 2026-04-22 23:11 | -41.78875 | 172.11186 | 13995 ft | 143 kts | 73° |
| 2026-04-22 23:11 | -41.78405 | 172.12367 | 13987 ft | 144 kts | 73° |
| 2026-04-22 23:11 | -41.77931 | 172.13555 | 13984 ft | 144 kts | 73° |
| 2026-04-22 23:12 | -41.77616 | 172.14338 | 13984 ft | 144 kts | 73° |
| 2026-04-22 23:12 | -41.77146 | 172.15513 | 13982 ft | 143 kts | 73° |
| 2026-04-22 23:12 | -41.76526 | 172.17061 | 13985 ft | 142 kts | 73° |
| 2026-04-22 23:12 | -41.76059 | 172.18232 | 13979 ft | 142 kts | 73° |
| 2026-04-22 23:13 | -41.75591 | 172.19398 | 13977 ft | 142 kts | 73° |
| 2026-04-22 23:13 | -41.75276 | 172.20186 | 13980 ft | 142 kts | 73° |
| 2026-04-22 23:13 | -41.74815 | 172.21337 | 13981 ft | 142 kts | 73° |
| 2026-04-22 23:13 | -41.74346 | 172.22510 | 13982 ft | 143 kts | 73° |
| 2026-04-22 23:14 | -41.73874 | 172.23689 | 13980 ft | 143 kts | 73° |
| 2026-04-22 23:14 | -41.73406 | 172.24849 | 13982 ft | 141 kts | 73° |
| 2026-04-22 23:14 | -41.72941 | 172.26009 | 13984 ft | 141 kts | 73° |
| 2026-04-22 23:14 | -41.72479 | 172.27165 | 13978 ft | 141 kts | 72° |
| 2026-04-22 23:15 | -41.72014 | 172.28319 | 13980 ft | 141 kts | 72° |
| 2026-04-22 23:15 | -41.71547 | 172.29485 | 13980 ft | 143 kts | 73° |
| 2026-04-22 23:15 | -41.71076 | 172.30659 | 13982 ft | 143 kts | 73° |
| 2026-04-22 23:15 | -41.70602 | 172.31844 | 13983 ft | 145 kts | 73° |
| 2026-04-22 23:16 | -41.70125 | 172.33028 | 13980 ft | 144 kts | 72° |
| 2026-04-22 23:16 | -41.69649 | 172.34207 | 13980 ft | 144 kts | 72° |
| 2026-04-22 23:16 | -41.69177 | 172.35379 | 13978 ft | 141 kts | 72° |
| 2026-04-22 23:16 | -41.68712 | 172.36523 | 13979 ft | 141 kts | 73° |
| 2026-04-22 23:17 | -41.68239 | 172.37716 | 13827 ft | 149 kts | 73° |
| 2026-04-22 23:17 | -41.67744 | 172.38961 | 13658 ft | 153 kts | 72° |
| 2026-04-22 23:17 | -41.67234 | 172.40218 | 13485 ft | 153 kts | 72° |
| 2026-04-22 23:17 | -41.66727 | 172.41473 | 13318 ft | 155 kts | 72° |
| 2026-04-22 23:18 | -41.66209 | 172.42757 | 13149 ft | 158 kts | 71° |
| 2026-04-22 23:18 | -41.65690 | 172.44028 | 12971 ft | 145 kts | 71° |
| 2026-04-22 23:18 | -41.65227 | 172.45118 | 12755 ft | 127 kts | 72° |
| 2026-04-22 23:18 | -41.64823 | 172.46108 | 12572 ft | 117 kts | 74° |
| 2026-04-22 23:19 | -41.64445 | 172.47043 | 12393 ft | 112 kts | 75° |
| 2026-04-22 23:19 | -41.64089 | 172.47925 | 12268 ft | 107 kts | 75° |
| 2026-04-22 23:19 | -41.63736 | 172.48811 | 12130 ft | 109 kts | 75° |
| 2026-04-22 23:19 | -41.63378 | 172.49701 | 11997 ft | 108 kts | 75° |
| 2026-04-22 23:20 | -41.63023 | 172.50575 | 11866 ft | 106 kts | 75° |
| 2026-04-22 23:20 | -41.62670 | 172.51454 | 11734 ft | 108 kts | 74° |
| 2026-04-22 23:20 | -41.62316 | 172.52326 | 11602 ft | 105 kts | 73° |
| 2026-04-22 23:20 | -41.61972 | 172.53175 | 11476 ft | 104 kts | 74° |
| 2026-04-22 23:21 | -41.61626 | 172.54029 | 11335 ft | 105 kts | 73° |
| 2026-04-22 23:21 | -41.61275 | 172.54900 | 11191 ft | 107 kts | 72° |
| 2026-04-22 23:21 | -41.60919 | 172.55780 | 11040 ft | 109 kts | 72° |
| 2026-04-22 23:21 | -41.60556 | 172.56676 | 10889 ft | 111 kts | 71° |
| 2026-04-22 23:22 | -41.60193 | 172.57557 | 10733 ft | 106 kts | 71° |
| 2026-04-22 23:22 | -41.59836 | 172.58450 | 10593 ft | 112 kts | 71° |
| 2026-04-22 23:22 | -41.59461 | 172.59384 | 10448 ft | 115 kts | 70° |
| 2026-04-22 23:22 | -41.59074 | 172.60333 | 10305 ft | 117 kts | 70° |
| 2026-04-22 23:23 | -41.58684 | 172.61296 | 10156 ft | 117 kts | 69° |
| 2026-04-22 23:23 | -41.58296 | 172.62245 | 10014 ft | 117 kts | 69° |
| 2026-04-22 23:23 | -41.57904 | 172.63212 | 9861 ft | 119 kts | 68° |
| 2026-04-22 23:23 | -41.57507 | 172.64189 | 9711 ft | 120 kts | 68° |
| 2026-04-22 23:24 | -41.57109 | 172.65166 | 9562 ft | 120 kts | 68° |
| 2026-04-22 23:24 | -41.56710 | 172.66147 | 9413 ft | 120 kts | 68° |
| 2026-04-22 23:24 | -41.56310 | 172.67133 | 9261 ft | 121 kts | 68° |
| 2026-04-22 23:24 | -41.55911 | 172.68114 | 9117 ft | 121 kts | 67° |
| 2026-04-22 23:25 | -41.55506 | 172.69105 | 8970 ft | 122 kts | 67° |
| 2026-04-22 23:25 | -41.55102 | 172.70094 | 8811 ft | 121 kts | 66° |
| 2026-04-22 23:25 | -41.54701 | 172.71083 | 8661 ft | 121 kts | 67° |
| 2026-04-22 23:25 | -41.54297 | 172.72072 | 8510 ft | 121 kts | 67° |
| 2026-04-22 23:26 | -41.53896 | 172.73059 | 8362 ft | 121 kts | 66° |
| 2026-04-22 23:26 | -41.53492 | 172.74050 | 8202 ft | 122 kts | 67° |
| 2026-04-22 23:26 | -41.53087 | 172.75043 | 8065 ft | 121 kts | 66° |
| 2026-04-22 23:26 | -41.52691 | 172.76013 | 7913 ft | 120 kts | 66° |
| 2026-04-22 23:27 | -41.52293 | 172.76986 | 7761 ft | 119 kts | 67° |
| 2026-04-22 23:27 | -41.51892 | 172.77965 | 7608 ft | 119 kts | 67° |
| 2026-04-22 23:27 | -41.51498 | 172.78936 | 7464 ft | 121 kts | 66° |
| 2026-04-22 23:27 | -41.51085 | 172.79954 | 7326 ft | 127 kts | 66° |
| 2026-04-22 23:28 | -41.50658 | 172.81002 | 7166 ft | 131 kts | 66° |
| 2026-04-22 23:28 | -41.50217 | 172.82083 | 7002 ft | 133 kts | 66° |
| 2026-04-22 23:28 | -41.49776 | 172.83162 | 6839 ft | 133 kts | 66° |
| 2026-04-22 23:28 | -41.49330 | 172.84254 | 6667 ft | 134 kts | 66° |
| 2026-04-22 23:29 | -41.48882 | 172.85349 | 6482 ft | 136 kts | 66° |
| 2026-04-22 23:29 | -41.48427 | 172.86456 | 6284 ft | 136 kts | 66° |
| 2026-04-22 23:29 | -41.47972 | 172.87569 | 6084 ft | 136 kts | 66° |
| 2026-04-22 23:29 | -41.47521 | 172.88670 | 5888 ft | 136 kts | 66° |
| 2026-04-22 23:30 | -41.47066 | 172.89783 | 5684 ft | 137 kts | 66° |
| 2026-04-22 23:30 | -41.46607 | 172.90900 | 5493 ft | 137 kts | 66° |
| 2026-04-22 23:30 | -41.46150 | 172.92019 | 5292 ft | 137 kts | 66° |
| 2026-04-22 23:30 | -41.45691 | 172.93125 | 5094 ft | 136 kts | 65° |
| 2026-04-22 23:31 | -41.45237 | 172.94236 | 4893 ft | 136 kts | 66° |
| 2026-04-22 23:31 | -41.44789 | 172.95326 | 4694 ft | 136 kts | 64° |
| 2026-04-22 23:31 | -41.44283 | 172.96386 | 4497 ft | 136 kts | 62° |
| 2026-04-22 23:31 | -41.43786 | 172.97461 | 4299 ft | 136 kts | 63° |
| 2026-04-22 23:32 | -41.43292 | 172.98543 | 4097 ft | 136 kts | 63° |
| 2026-04-22 23:32 | -41.42793 | 172.99608 | 3898 ft | 135 kts | 62° |
| 2026-04-22 23:32 | -41.42297 | 173.00677 | 3699 ft | 135 kts | 63° |
| 2026-04-22 23:32 | -41.41802 | 173.01740 | 3497 ft | 135 kts | 62° |
| 2026-04-22 23:33 | -41.41309 | 173.02799 | 3299 ft | 134 kts | 63° |
| 2026-04-22 23:33 | -41.40816 | 173.03854 | 3099 ft | 134 kts | 62° |
| 2026-04-22 23:33 | -41.40325 | 173.04908 | 2901 ft | 134 kts | 62° |
| 2026-04-22 23:33 | -41.39839 | 173.05950 | 2696 ft | 129 kts | 62° |
| 2026-04-22 23:34 | -41.39370 | 173.06950 | 2486 ft | 125 kts | 63° |
| 2026-04-22 23:34 | -41.38910 | 173.07928 | 2281 ft | 124 kts | 61° |
| 2026-04-22 23:34 | -41.38452 | 173.08904 | 2076 ft | 123 kts | 62° |
| 2026-04-22 23:34 | -41.38008 | 173.09858 | 1876 ft | 122 kts | 62° |
| 2026-04-22 23:35 | -41.37558 | 173.10819 | 1683 ft | 122 kts | 62° |
| 2026-04-22 23:35 | -41.37109 | 173.11783 | 1470 ft | 122 kts | 62° |
| 2026-04-22 23:35 | -41.36597 | 173.12683 | 1268 ft | 122 kts | 50° |
| 2026-04-22 23:35 | -41.36028 | 173.13505 | 1079 ft | 118 kts | 51° |
| 2026-04-22 23:36 | -41.35500 | 173.14309 | 912 ft | 113 kts | 54° |
| 2026-04-22 23:36 | -41.35012 | 173.15115 | 806 ft | 107 kts | 54° |
| 2026-04-22 23:36 | -41.34556 | 173.15874 | 739 ft | 106 kts | 54° |
| 2026-04-22 23:36 | -41.34072 | 173.16608 | 675 ft | 104 kts | 51° |
| 2026-04-22 23:37 | -41.33583 | 173.17325 | 685 ft | 105 kts | 52° |
| 2026-04-22 23:37 | -41.33095 | 173.18060 | 714 ft | 104 kts | 51° |
| 2026-04-22 23:37 | -41.32607 | 173.18795 | 676 ft | 109 kts | 52° |
| 2026-04-22 23:37 | -41.32055 | 173.19576 | 588 ft | 121 kts | 47° |
| 2026-04-22 23:38 | -41.31433 | 173.20376 | 415 ft | 123 kts | 44° |
| 2026-04-22 23:38 | -41.30852 | 173.21059 | 256 ft | 103 kts | 45° |
| 2026-04-22 23:38 | -41.30335 | 173.21659 | 123 ft | 93 kts | 43° |
| 2026-04-22 23:38 | -41.29889 | 173.22178 | 34 ft | 77 kts | 44° |
| 2026-04-22 23:39 | -41.29558 | 173.22562 | 31 ft | 43 kts | 40° |
| 2026-04-22 23:39 | -41.29501 | 173.22617 | 31 ft | 6 kts | 227° |
| 2026-04-22 23:39 | -41.29555 | 173.22562 | 31 ft | 16 kts | 217° |
| 2026-04-22 23:39 | -41.29674 | 173.22433 | 31 ft | 23 kts | 213° |
| 2026-04-22 23:40 | -41.29772 | 173.22486 | 31 ft | 10 kts | 132° |
| 2026-04-22 23:40 | -41.29835 | 173.22464 | 31 ft | 15 kts | 221° |
| 2026-04-22 23:40 | -41.29943 | 173.22338 | 31 ft | 15 kts | 216° |
| 2026-04-22 23:40 | -41.29994 | 173.22371 | 31 ft | 9 kts | 165° |
| 2026-04-22 23:41 | -41.30067 | 173.22371 | 31 ft | 7 kts | 216° |
| 2026-04-22 23:41 | -41.30083 | 173.22372 | 31 ft | 3 kts | 70° |
| 2026-04-22 23:41 | -41.30078 | 173.22378 | 31 ft | 0 kts | 40° |